createdAt,value
2019-02-17T00:01:04.063Z,27.07
2019-02-17T00:03:33.542Z,25.43
2019-02-17T00:06:02.994Z,22.50
2019-02-17T00:08:32.453Z,28.50
2019-02-17T00:11:01.971Z,22.00
2019-02-17T00:13:31.590Z,21.50
2019-02-17T00:16:01.113Z,23.20
2019-02-17T00:18:30.562Z,23.03
2019-02-17T00:21:00.035Z,28.20
2019-02-17T00:23:29.587Z,27.23
2019-02-17T00:25:59.167Z,26.63
2019-02-17T00:28:28.765Z,26.93
2019-02-17T00:30:58.248Z,30.90
2019-02-17T00:33:27.719Z,24.87
2019-02-17T00:35:57.255Z,24.03
2019-02-17T00:38:26.766Z,24.13
2019-02-17T00:40:56.219Z,25.63
2019-02-17T00:43:25.724Z,19.23
2019-02-17T00:45:55.171Z,27.73
2019-02-17T00:48:24.616Z,25.27
2019-02-17T00:50:54.093Z,24.97
2019-02-17T00:53:23.541Z,25.93
2019-02-17T00:55:52.994Z,25.13
2019-02-17T00:58:22.486Z,21.20
2019-02-17T01:00:51.940Z,23.47
2019-02-17T01:03:21.415Z,21.73
2019-02-17T01:05:50.906Z,25.50
2019-02-17T01:08:20.370Z,27.13
2019-02-17T01:10:49.904Z,31.63
2019-02-17T01:13:19.376Z,24.97
2019-02-17T01:15:48.899Z,23.93
2019-02-17T01:18:18.414Z,22.47
2019-02-17T01:20:48.576Z,24.57
2019-02-17T01:23:18.093Z,24.57
2019-02-17T01:25:47.623Z,28.07
2019-02-17T01:28:17.092Z,29.73
2019-02-17T01:30:46.652Z,24.40
2019-02-17T01:33:16.180Z,22.53
2019-02-17T01:35:45.729Z,23.23
2019-02-17T01:38:15.215Z,25.10
2019-02-17T01:40:44.650Z,24.67
2019-02-17T01:43:14.110Z,21.67
2019-02-17T01:45:43.656Z,24.37
2019-02-17T01:48:13.116Z,25.70
2019-02-17T01:50:42.567Z,34.07
2019-02-17T01:53:12.024Z,27.00
2019-02-17T01:55:41.515Z,21.27
2019-02-17T01:58:10.973Z,25.13
2019-02-17T02:00:40.744Z,23.70
2019-02-17T02:03:10.219Z,26.30
2019-02-17T02:05:39.676Z,24.43
2019-02-17T02:08:09.217Z,22.60
2019-02-17T02:10:38.698Z,26.57
2019-02-17T02:13:08.161Z,29.03
2019-02-17T02:15:37.682Z,30.07
2019-02-17T02:18:07.243Z,30.53
2019-02-17T02:20:36.716Z,25.70
2019-02-17T02:23:06.175Z,24.67
2019-02-17T02:25:36.273Z,27.03
2019-02-17T02:28:05.803Z,28.83
2019-02-17T02:30:35.299Z,28.90
2019-02-17T02:33:04.788Z,23.77
2019-02-17T02:35:34.306Z,23.80
2019-02-17T02:38:03.812Z,22.47
2019-02-17T02:40:33.382Z,24.87
2019-02-17T02:43:02.849Z,27.43
2019-02-17T02:45:32.380Z,27.63
2019-02-17T02:48:01.937Z,26.80
2019-02-17T02:50:31.381Z,29.03
2019-02-17T02:53:00.846Z,23.53
2019-02-17T02:55:30.368Z,26.50
2019-02-17T02:57:59.819Z,27.57
2019-02-17T03:00:29.263Z,29.30
2019-02-17T03:02:58.800Z,29.30
2019-02-17T03:05:28.283Z,25.83
2019-02-17T03:07:57.872Z,24.57
2019-02-17T03:10:27.294Z,24.33
2019-02-17T03:12:56.795Z,29.80
2019-02-17T03:15:26.259Z,24.40
2019-02-17T03:17:55.717Z,28.70
2019-02-17T03:20:25.250Z,24.10
2019-02-17T03:22:54.695Z,28.20
2019-02-17T03:25:24.137Z,25.23
2019-02-17T03:27:53.766Z,28.83
2019-02-17T03:30:23.200Z,26.70
2019-02-17T03:32:52.685Z,24.47
2019-02-17T03:35:22.129Z,24.93
2019-02-17T03:37:51.608Z,24.57
2019-02-17T03:40:21.069Z,27.90
2019-02-17T03:42:50.587Z,22.27
2019-02-17T03:45:20.076Z,24.20
2019-02-17T03:47:49.569Z,25.57
2019-02-17T03:50:19.034Z,29.07
2019-02-17T03:52:48.481Z,28.43
2019-02-17T03:55:18.065Z,29.57
2019-02-17T03:57:47.512Z,24.90
2019-02-17T04:00:17.624Z,22.90
2019-02-17T04:02:47.220Z,27.07
2019-02-17T04:05:16.726Z,24.07
2019-02-17T04:07:46.185Z,24.43
2019-02-17T04:10:15.655Z,21.60
2019-02-17T04:12:45.148Z,23.57
2019-02-17T04:15:14.810Z,24.80
2019-02-17T04:17:44.328Z,25.60
2019-02-17T04:20:14.204Z,19.63
2019-02-17T04:22:43.711Z,22.13
2019-02-17T04:25:13.185Z,20.83
2019-02-17T04:27:42.644Z,21.17
2019-02-17T04:30:12.348Z,25.60
2019-02-17T04:32:41.859Z,21.90
2019-02-17T04:35:11.380Z,26.03
2019-02-17T04:37:40.857Z,26.53
2019-02-17T04:40:10.457Z,24.50
2019-02-17T04:42:39.905Z,24.10
2019-02-17T04:45:09.583Z,21.90
2019-02-17T04:47:39.046Z,22.77
2019-02-17T04:50:10.003Z,22.43
2019-02-17T04:52:39.554Z,23.27
2019-02-17T04:55:09.449Z,21.27
2019-02-17T04:57:38.907Z,25.57
2019-02-17T05:00:10.465Z,20.43
2019-02-17T05:02:39.946Z,27.93
2019-02-17T05:05:09.631Z,23.13
2019-02-17T05:07:39.080Z,22.33
2019-02-17T05:10:09.163Z,22.23
2019-02-17T05:12:38.626Z,28.27
2019-02-17T05:15:09.634Z,24.70
2019-02-17T05:17:39.108Z,25.57
2019-02-17T05:20:09.880Z,23.60
2019-02-17T05:22:39.660Z,21.83
2019-02-17T05:25:09.354Z,28.33
2019-02-17T05:27:38.809Z,22.10
2019-02-17T05:30:12.495Z,24.23
2019-02-17T05:32:41.946Z,26.47
2019-02-17T05:35:11.481Z,25.60
2019-02-17T05:37:40.917Z,22.30
2019-02-17T05:40:10.590Z,18.23
2019-02-17T05:42:40.045Z,23.93
2019-02-17T05:45:09.832Z,25.87
2019-02-17T05:47:39.267Z,23.37
2019-02-17T05:50:09.771Z,24.90
2019-02-17T05:52:39.208Z,23.30
2019-02-17T05:55:08.920Z,26.37
2019-02-17T05:57:38.410Z,25.27
2019-02-17T06:00:12.120Z,28.23
2019-02-17T06:02:41.552Z,27.07
2019-02-17T06:05:11.034Z,30.33
2019-02-17T06:07:40.523Z,28.40
2019-02-17T06:10:10.924Z,25.87
2019-02-17T06:12:40.387Z,22.90
2019-02-17T06:15:10.037Z,21.20
2019-02-17T06:17:39.489Z,21.90
2019-02-17T06:20:11.277Z,21.00
2019-02-17T06:22:40.744Z,23.90
2019-02-17T06:25:10.333Z,22.70
2019-02-17T06:27:39.820Z,26.00
2019-02-17T06:30:10.473Z,26.93
2019-02-17T06:32:39.970Z,25.73
2019-02-17T06:35:09.788Z,25.03
2019-02-17T06:37:39.273Z,26.80
2019-02-17T06:40:09.630Z,27.90
2019-02-17T06:42:39.209Z,21.43
2019-02-17T06:45:10.324Z,26.90
2019-02-17T06:47:39.765Z,26.57
2019-02-17T06:50:10.979Z,25.60
2019-02-17T06:52:40.403Z,24.10
2019-02-17T06:55:11.624Z,23.90
2019-02-17T06:57:42.360Z,23.23
2019-02-17T07:00:16.750Z,27.67
2019-02-17T07:02:46.154Z,27.07
2019-02-17T07:05:35.369Z,24.47
2019-02-17T07:08:05.000Z,25.77
2019-02-17T07:10:34.265Z,25.93
2019-02-17T07:13:03.806Z,21.83
2019-02-17T07:15:33.374Z,24.33
2019-02-17T07:18:02.955Z,26.83
2019-02-17T07:20:32.437Z,23.57
2019-02-17T07:23:01.922Z,24.57
2019-02-17T07:25:31.381Z,22.33
2019-02-17T07:28:00.848Z,21.30
2019-02-17T07:30:30.304Z,25.20
2019-02-17T07:32:59.755Z,20.37
2019-02-17T07:35:29.216Z,24.77
2019-02-17T07:37:58.668Z,21.83
2019-02-17T07:40:28.128Z,21.33
2019-02-17T07:42:57.573Z,22.50
2019-02-17T07:45:27.019Z,22.40
2019-02-17T07:47:56.513Z,23.47
2019-02-17T07:50:25.955Z,25.90
2019-02-17T07:52:55.473Z,23.93
2019-02-17T07:55:24.946Z,24.90
2019-02-17T07:57:54.488Z,21.90
2019-02-17T08:00:23.949Z,25.37
2019-02-17T08:02:53.427Z,26.73
2019-02-17T08:05:22.879Z,23.37
2019-02-17T08:07:52.390Z,23.83
2019-02-17T08:10:22.037Z,25.37
2019-02-17T08:12:51.521Z,26.00
2019-02-17T08:15:21.021Z,25.47
2019-02-17T08:17:50.485Z,26.50
2019-02-17T08:20:20.124Z,24.37
2019-02-17T08:22:49.592Z,22.90
2019-02-17T08:25:21.846Z,25.37
2019-02-17T08:27:50.261Z,24.37
2019-02-17T08:30:19.777Z,26.03
2019-02-17T08:32:49.245Z,27.70
2019-02-17T08:35:18.704Z,26.47
2019-02-17T08:37:48.262Z,26.07
2019-02-17T08:40:17.703Z,22.90
2019-02-17T08:42:47.274Z,28.33
2019-02-17T08:45:16.716Z,28.07
2019-02-17T08:47:46.165Z,26.63
2019-02-17T08:50:15.640Z,26.73
2019-02-17T08:52:45.076Z,27.00
2019-02-17T08:55:14.665Z,28.70
2019-02-17T08:57:44.123Z,24.43
2019-02-17T09:00:15.233Z,26.73
2019-02-17T09:02:44.636Z,24.47
2019-02-17T09:05:14.082Z,25.10
2019-02-17T09:07:43.616Z,27.40
2019-02-17T09:10:13.787Z,25.13
2019-02-17T09:12:43.375Z,25.87
2019-02-17T09:15:13.379Z,25.53
2019-02-17T09:17:43.068Z,27.87
2019-02-17T09:20:12.910Z,25.67
2019-02-17T09:22:42.370Z,25.13
2019-02-17T09:25:12.864Z,26.27
2019-02-17T09:27:42.376Z,27.47
2019-02-17T09:30:17.613Z,26.97
2019-02-17T09:32:47.225Z,26.23
2019-02-17T09:35:16.697Z,25.67
2019-02-17T09:37:46.159Z,24.30
2019-02-17T09:40:15.781Z,27.57
2019-02-17T09:42:45.238Z,26.07
2019-02-17T09:45:16.489Z,24.80
2019-02-17T09:47:46.027Z,25.40
2019-02-17T09:50:15.971Z,28.30
2019-02-17T09:52:45.562Z,29.80
2019-02-17T09:55:15.035Z,25.33
2019-02-17T09:57:44.451Z,24.13
2019-02-17T10:00:16.120Z,25.47
2019-02-17T10:02:45.663Z,25.13
2019-02-17T10:05:15.569Z,24.30
2019-02-17T10:07:45.012Z,25.03
2019-02-17T10:10:17.895Z,27.07
2019-02-17T10:12:47.362Z,25.20
2019-02-17T10:15:16.963Z,25.33
2019-02-17T10:17:46.473Z,24.27
2019-02-17T10:20:16.781Z,27.57
2019-02-17T10:22:46.302Z,23.07
2019-02-17T10:25:15.806Z,26.37
2019-02-17T10:27:45.300Z,22.73
2019-02-17T10:30:18.807Z,23.87
2019-02-17T10:32:48.298Z,24.27
2019-02-17T10:35:17.735Z,22.87
2019-02-17T10:37:47.193Z,24.73
2019-02-17T10:40:21.074Z,22.27
2019-02-17T10:42:50.545Z,23.67
2019-02-17T10:45:20.065Z,26.07
2019-02-17T10:47:49.629Z,21.83
2019-02-17T10:50:19.079Z,22.67
2019-02-17T10:52:48.608Z,23.40
2019-02-17T10:55:18.092Z,24.23
2019-02-17T10:57:47.520Z,23.53
2019-02-17T11:00:22.058Z,24.83
2019-02-17T11:02:51.602Z,22.13
2019-02-17T11:05:21.130Z,21.47
2019-02-17T11:07:51.153Z,21.30
2019-02-17T11:10:20.758Z,22.43
2019-02-17T11:12:50.300Z,21.27
2019-02-17T11:15:22.740Z,21.53
2019-02-17T11:17:52.253Z,24.00
2019-02-17T11:20:21.732Z,23.33
2019-02-17T11:22:51.244Z,20.93
2019-02-17T11:25:20.754Z,21.10
2019-02-17T11:27:50.212Z,20.97
2019-02-17T11:30:21.838Z,22.30
2019-02-17T11:32:58.056Z,18.30
2019-02-17T11:35:22.453Z,21.93
2019-02-17T11:37:52.021Z,22.37
2019-02-17T11:40:21.550Z,23.13
2019-02-17T11:42:51.068Z,21.60
2019-02-17T11:45:21.008Z,20.93
2019-02-17T11:47:50.485Z,22.30
2019-02-17T11:50:20.041Z,18.97
2019-02-17T11:52:49.562Z,21.83
2019-02-17T11:55:19.008Z,19.47
2019-02-17T11:57:48.614Z,18.73
2019-02-17T12:00:21.016Z,20.00
2019-02-17T12:02:50.538Z,19.77
2019-02-17T12:05:20.025Z,21.23
2019-02-17T12:07:55.152Z,20.53
2019-02-17T12:10:24.751Z,21.53
2019-02-17T12:12:54.273Z,19.30
2019-02-17T12:15:23.820Z,18.93
2019-02-17T12:17:53.277Z,19.07
2019-02-17T12:20:28.296Z,19.87
2019-02-17T12:23:11.189Z,20.57
2019-02-17T12:25:42.316Z,20.13
2019-02-17T12:28:13.425Z,21.00
2019-02-17T12:30:44.468Z,20.60
2019-02-17T12:33:19.368Z,18.60
2019-02-17T12:35:45.225Z,20.03
2019-02-17T12:38:14.709Z,21.03
2019-02-17T12:40:44.212Z,21.80
2019-02-17T12:43:13.652Z,18.80
2019-02-17T12:45:43.138Z,21.20
2019-02-17T12:48:12.666Z,19.53
2019-02-17T12:50:42.146Z,20.10
2019-02-17T12:53:11.810Z,20.50
2019-02-17T12:55:41.322Z,21.53
2019-02-17T12:58:10.911Z,20.60
2019-02-17T13:00:40.401Z,20.27
2019-02-17T13:03:09.872Z,21.80
2019-02-17T13:05:39.320Z,19.20
2019-02-17T13:08:08.857Z,21.00
2019-02-17T13:10:39.891Z,21.03
2019-02-17T13:13:09.400Z,18.53
2019-02-17T13:15:39.233Z,21.27
2019-02-17T13:18:08.719Z,21.07
2019-02-17T13:20:38.179Z,19.77
2019-02-17T13:23:07.720Z,22.37
2019-02-17T13:25:38.276Z,20.27
2019-02-17T13:28:08.003Z,20.03
2019-02-17T13:30:37.570Z,20.00
2019-02-17T13:33:07.041Z,19.67
2019-02-17T13:35:36.554Z,19.87
2019-02-17T13:38:06.100Z,17.23
2019-02-17T13:40:35.628Z,19.00
2019-02-17T13:43:05.148Z,20.53
2019-02-17T13:45:34.706Z,20.43
2019-02-17T13:48:04.179Z,18.70
2019-02-17T13:50:33.651Z,21.03
2019-02-17T13:53:11.362Z,20.13
2019-02-17T13:55:34.319Z,20.63
2019-02-17T13:58:03.810Z,18.27
2019-02-17T14:00:33.298Z,17.87
2019-02-17T14:03:04.479Z,20.50
2019-02-17T14:05:34.123Z,19.37
2019-02-17T14:08:03.575Z,19.13
2019-02-17T14:10:33.033Z,18.77
2019-02-17T14:13:02.508Z,18.43
2019-02-17T14:15:32.050Z,17.60
2019-02-17T14:18:01.521Z,18.90
2019-02-17T14:20:30.994Z,19.30
2019-02-17T14:23:00.486Z,18.43
2019-02-17T14:25:29.928Z,17.70
2019-02-17T14:27:59.389Z,18.93
2019-02-17T14:30:30.452Z,18.63
2019-02-17T14:33:00.152Z,16.83
2019-02-17T14:35:29.610Z,20.10
2019-02-17T14:37:59.086Z,19.80
2019-02-17T14:40:30.231Z,17.87
2019-02-17T14:42:59.676Z,18.17
2019-02-17T14:45:29.239Z,18.70
2019-02-17T14:47:58.708Z,15.27
2019-02-17T14:50:28.192Z,17.07
2019-02-17T14:52:57.764Z,17.67
2019-02-17T14:55:27.251Z,16.83
2019-02-17T14:58:04.919Z,16.73
2019-02-17T15:00:27.916Z,13.57
2019-02-17T15:02:57.374Z,15.73
2019-02-17T15:05:26.856Z,17.90
2019-02-17T15:07:56.401Z,15.63
2019-02-17T15:10:25.924Z,15.07
2019-02-17T15:12:55.356Z,15.27
2019-02-17T15:15:24.821Z,16.50
2019-02-17T15:17:54.297Z,14.60
2019-02-17T15:20:25.786Z,15.10
2019-02-17T15:22:55.426Z,15.03
2019-02-17T15:25:25.112Z,15.87
2019-02-17T15:27:54.590Z,16.70
2019-02-17T15:30:24.221Z,16.50
2019-02-17T15:33:03.235Z,13.90
2019-02-17T15:35:25.010Z,16.70
2019-02-17T15:37:54.496Z,17.17
2019-02-17T15:40:24.037Z,14.77
2019-02-17T15:42:53.499Z,14.87
2019-02-17T15:45:23.060Z,16.43
2019-02-17T15:47:52.597Z,15.33
2019-02-17T15:50:22.152Z,14.40
2019-02-17T15:52:51.681Z,15.57
2019-02-17T15:55:21.146Z,14.53
2019-02-17T15:57:50.664Z,15.13
2019-02-17T16:00:21.147Z,15.03
2019-02-17T16:02:50.611Z,16.33
2019-02-17T16:05:20.103Z,14.47
2019-02-17T16:07:49.545Z,16.40
2019-02-17T16:10:19.465Z,15.93
2019-02-17T16:12:48.935Z,15.47
2019-02-17T16:15:24.432Z,16.90
2019-02-17T16:17:53.924Z,15.63
2019-02-17T16:20:24.920Z,15.83
2019-02-17T16:22:54.435Z,14.43
2019-02-17T16:25:24.004Z,14.47
2019-02-17T16:27:53.660Z,16.00
2019-02-17T16:30:24.319Z,14.30
2019-02-17T16:32:53.804Z,13.57
2019-02-17T16:35:23.328Z,15.63
2019-02-17T16:37:52.950Z,14.23
2019-02-17T16:40:22.495Z,13.40
2019-02-17T16:42:51.961Z,14.07
2019-02-17T16:45:21.463Z,14.57
2019-02-17T16:47:51.005Z,15.43
2019-02-17T16:50:26.561Z,12.93
2019-02-17T16:52:56.041Z,14.47
2019-02-17T16:55:25.654Z,13.03
2019-02-17T16:57:55.176Z,14.17
2019-02-17T17:00:26.641Z,17.13
2019-02-17T17:02:57.317Z,14.60
2019-02-17T17:05:26.896Z,16.70
2019-02-17T17:07:56.508Z,15.67
2019-02-17T17:10:26.170Z,13.67
2019-02-17T17:12:55.848Z,14.03
2019-02-17T17:15:25.556Z,15.83
2019-02-17T17:17:55.169Z,16.67
2019-02-17T17:20:25.009Z,15.70
2019-02-17T17:22:54.776Z,14.37
2019-02-17T17:25:24.446Z,14.80
2019-02-17T17:27:54.064Z,17.60
2019-02-17T17:30:23.954Z,15.73
2019-02-17T17:32:53.714Z,15.23
2019-02-17T17:35:23.401Z,15.80
2019-02-17T17:37:53.178Z,18.67
2019-02-17T17:40:22.985Z,17.93
2019-02-17T17:42:52.723Z,17.17
2019-02-17T17:45:23.273Z,14.17
2019-02-17T17:47:52.965Z,15.93
2019-02-17T17:50:22.422Z,22.37
2019-02-17T17:52:51.933Z,16.97
2019-02-17T17:55:21.551Z,17.13
2019-02-17T17:57:51.030Z,17.63
2019-02-17T18:00:22.332Z,18.70
2019-02-17T18:02:52.031Z,19.27
2019-02-17T18:05:21.672Z,17.00
2019-02-17T18:07:51.311Z,16.37
2019-02-17T18:10:20.906Z,17.27
2019-02-17T18:12:50.425Z,16.33
2019-02-17T18:15:21.102Z,18.23
2019-02-17T18:17:54.616Z,18.17
2019-02-17T18:20:22.286Z,18.53
2019-02-17T18:22:51.880Z,19.83
2019-02-17T18:25:21.677Z,21.10
2019-02-17T18:27:51.471Z,20.60
2019-02-17T18:30:21.694Z,22.63
2019-02-17T18:32:51.143Z,21.33
2019-02-17T18:35:20.961Z,19.47
2019-02-17T18:37:50.486Z,16.93
2019-02-17T18:40:21.108Z,17.07
2019-02-17T18:42:50.638Z,17.53
2019-02-17T18:45:20.077Z,21.53
2019-02-17T18:47:49.548Z,18.07
2019-02-17T18:50:20.709Z,16.60
2019-02-17T18:52:50.183Z,17.23
2019-02-17T18:55:20.653Z,16.67
2019-02-17T18:57:51.165Z,18.40
2019-02-17T19:00:26.583Z,15.90
2019-02-17T19:02:56.477Z,20.63
2019-02-17T19:05:32.162Z,21.73
2019-02-17T19:07:57.255Z,17.97
2019-02-17T19:10:26.791Z,18.00
2019-02-17T19:12:56.243Z,21.50
2019-02-17T19:15:25.720Z,19.63
2019-02-17T19:17:55.183Z,19.03
2019-02-17T19:20:34.963Z,20.10
2019-02-17T19:23:04.498Z,19.57
2019-02-17T19:25:33.991Z,20.27
2019-02-17T19:28:05.013Z,18.57
2019-02-17T19:30:34.595Z,19.40
2019-02-17T19:33:04.200Z,20.13
2019-02-17T19:35:41.476Z,18.53
2019-02-17T19:38:06.989Z,16.50
2019-02-17T19:40:36.475Z,18.03
2019-02-17T19:43:06.006Z,15.63
2019-02-17T19:45:35.537Z,18.47
2019-02-17T19:48:05.015Z,16.33
2019-02-17T19:50:34.555Z,16.33
2019-02-17T19:53:05.265Z,17.53
2019-02-17T19:55:34.919Z,20.47
2019-02-17T19:58:04.575Z,16.70
2019-02-17T20:00:34.165Z,17.10
2019-02-17T20:03:14.350Z,17.07
2019-02-17T20:05:54.694Z,19.53
2019-02-17T20:08:24.208Z,17.97
2019-02-17T20:10:53.771Z,13.13
2019-02-17T20:13:23.336Z,16.40
2019-02-17T20:15:52.798Z,16.10
2019-02-17T20:18:22.347Z,15.57
2019-02-17T20:20:51.823Z,15.33
2019-02-17T20:23:21.376Z,16.47
2019-02-17T20:25:50.907Z,15.77
2019-02-17T20:28:20.435Z,14.90
2019-02-17T20:30:49.941Z,16.43
2019-02-17T20:33:19.519Z,16.97
2019-02-17T20:35:49.022Z,16.53
2019-02-17T20:38:18.286Z,15.53
2019-02-17T20:40:48.015Z,14.50
2019-02-17T20:43:17.413Z,16.83
2019-02-17T20:45:46.875Z,13.87
2019-02-17T20:48:16.374Z,14.43
2019-02-17T20:50:45.823Z,13.77
2019-02-17T20:53:15.348Z,13.67
2019-02-17T20:55:44.821Z,14.07
2019-02-17T20:58:14.287Z,12.93
2019-02-17T21:00:43.819Z,14.63
2019-02-17T21:03:13.565Z,12.47
2019-02-17T21:05:43.108Z,13.57
2019-02-17T21:08:12.653Z,13.83
2019-02-17T21:10:42.207Z,12.80
2019-02-17T21:13:11.683Z,12.20
2019-02-17T21:15:41.341Z,13.77
2019-02-17T21:18:10.996Z,13.03
2019-02-17T21:20:40.740Z,12.10
2019-02-17T21:23:10.411Z,12.57
2019-02-17T21:25:39.974Z,10.60
2019-02-17T21:28:09.472Z,11.40
2019-02-17T21:30:39.032Z,10.93
2019-02-17T21:33:09.198Z,10.63
2019-02-17T21:35:39.214Z,12.47
2019-02-17T21:38:08.893Z,13.73
2019-02-17T21:40:38.692Z,14.87
2019-02-17T21:43:08.206Z,12.60
2019-02-17T21:45:37.864Z,13.17
2019-02-17T21:48:07.467Z,13.53
2019-02-17T21:50:37.073Z,12.73
2019-02-17T21:53:10.303Z,12.10
2019-02-17T21:55:39.927Z,11.00
2019-02-17T21:58:09.274Z,11.97
2019-02-17T22:00:38.816Z,10.17
2019-02-17T22:03:08.380Z,11.77
2019-02-17T22:05:37.852Z,10.63
2019-02-17T22:08:07.372Z,12.33
2019-02-17T22:10:36.810Z,11.77
2019-02-17T22:13:06.343Z,12.87
2019-02-17T22:15:35.804Z,13.10
2019-02-17T22:18:05.303Z,13.63
2019-02-17T22:20:34.767Z,10.60
2019-02-17T22:23:04.304Z,12.47
2019-02-17T22:25:33.796Z,11.80
2019-02-17T22:28:03.273Z,11.37
2019-02-17T22:30:32.746Z,13.13
2019-02-17T22:33:02.214Z,13.50
2019-02-17T22:35:31.889Z,13.97
2019-02-17T22:38:01.375Z,13.50
2019-02-17T22:40:30.905Z,12.63
2019-02-17T22:43:00.412Z,13.70
2019-02-17T22:45:29.864Z,11.90
2019-02-17T22:47:59.490Z,11.63
2019-02-17T22:50:28.962Z,12.80
2019-02-17T22:52:58.470Z,12.13
2019-02-17T22:55:27.987Z,12.27
2019-02-17T22:57:57.478Z,14.23
2019-02-17T23:00:48.149Z,9.60
2019-02-17T23:03:17.808Z,11.17
2019-02-17T23:05:47.520Z,12.93
2019-02-17T23:08:17.116Z,11.87
2019-02-17T23:10:46.711Z,12.60
2019-02-17T23:13:16.191Z,10.27
2019-02-17T23:15:45.698Z,13.17
2019-02-17T23:18:15.164Z,11.30
2019-02-17T23:20:44.726Z,11.37
2019-02-17T23:23:14.194Z,12.27
2019-02-17T23:25:43.629Z,12.90
2019-02-17T23:28:13.101Z,10.83
2019-02-17T23:30:42.701Z,10.93
2019-02-17T23:33:12.313Z,10.83
2019-02-17T23:35:41.816Z,12.13
2019-02-17T23:38:11.246Z,9.77
2019-02-17T23:40:40.740Z,12.03
2019-02-17T23:43:10.256Z,12.50
2019-02-17T23:45:39.745Z,11.20
2019-02-17T23:48:09.279Z,13.53
2019-02-17T23:50:38.811Z,14.27
2019-02-17T23:53:08.428Z,13.47
2019-02-17T23:55:37.932Z,10.27
2019-02-17T23:58:07.524Z,10.90
